createdAt,value
2017-07-20T00:02:04.676Z,5.73
2017-07-20T00:04:32.165Z,5.57
2017-07-20T00:06:59.681Z,6.07
2017-07-20T00:09:27.182Z,6.40
2017-07-20T00:11:54.713Z,6.33
2017-07-20T00:14:22.221Z,6.90
2017-07-20T00:16:49.732Z,6.57
2017-07-20T00:19:17.231Z,5.87
2017-07-20T00:21:44.762Z,5.27
2017-07-20T00:24:12.268Z,5.50
2017-07-20T00:26:39.791Z,6.77
2017-07-20T00:29:07.314Z,6.00
2017-07-20T00:31:34.874Z,6.03
2017-07-20T00:34:02.416Z,6.50
2017-07-20T00:36:29.944Z,5.90
2017-07-20T00:38:57.445Z,6.30
2017-07-20T00:41:24.980Z,6.17
2017-07-20T00:43:52.493Z,6.07
2017-07-20T00:46:20.025Z,5.67
2017-07-20T00:48:47.552Z,6.37
2017-07-20T00:51:15.065Z,5.30
2017-07-20T00:53:42.604Z,5.57
2017-07-20T00:56:10.129Z,4.90
2017-07-20T00:58:37.701Z,5.83
2017-07-20T01:01:05.310Z,5.30
2017-07-20T01:03:32.848Z,5.30
2017-07-20T01:06:00.389Z,5.80
2017-07-20T01:08:27.956Z,5.50
2017-07-20T01:10:55.489Z,5.60
2017-07-20T01:13:23.093Z,5.07
2017-07-20T01:15:50.610Z,4.67
2017-07-20T01:18:18.188Z,5.20
2017-07-20T01:20:45.800Z,4.57
2017-07-20T01:23:13.407Z,5.23
2017-07-20T01:25:55.797Z,5.23
2017-07-20T01:28:23.389Z,4.60
2017-07-20T01:30:50.992Z,4.83
2017-07-20T01:33:18.603Z,5.30
2017-07-20T01:35:46.147Z,4.77
2017-07-20T01:38:13.725Z,5.07
2017-07-20T01:40:41.287Z,5.30
2017-07-20T01:43:08.923Z,4.90
2017-07-20T01:45:36.615Z,4.73
2017-07-20T01:48:04.177Z,4.63
2017-07-20T01:50:31.726Z,4.60
2017-07-20T01:52:59.261Z,5.17
2017-07-20T01:55:26.829Z,4.73
2017-07-20T01:57:54.376Z,5.60
2017-07-20T02:00:21.937Z,5.70
2017-07-20T02:02:49.513Z,5.03
2017-07-20T02:05:17.069Z,5.43
2017-07-20T02:07:44.611Z,5.00
2017-07-20T02:10:12.190Z,5.20
2017-07-20T02:12:39.710Z,6.30
2017-07-20T02:15:07.317Z,5.47
2017-07-20T02:17:34.844Z,4.87
2017-07-20T02:20:02.433Z,5.77
2017-07-20T02:22:29.970Z,4.90
2017-07-20T02:24:57.801Z,5.30
2017-07-20T02:27:25.308Z,5.40
2017-07-20T02:29:52.917Z,5.60
2017-07-20T02:32:20.421Z,4.90
2017-07-20T02:34:48.953Z,6.00
2017-07-20T02:37:16.461Z,5.10
2017-07-20T02:39:43.989Z,4.93
2017-07-20T02:42:11.489Z,5.40
2017-07-20T02:44:39.022Z,4.80
2017-07-20T02:47:06.525Z,5.20
2017-07-20T02:49:34.049Z,5.20
2017-07-20T02:52:01.548Z,4.70
2017-07-20T02:54:29.048Z,5.30
2017-07-20T02:56:56.569Z,5.40
2017-07-20T02:59:24.091Z,5.00
2017-07-20T03:01:51.629Z,5.60
2017-07-20T03:04:19.134Z,5.03
2017-07-20T03:06:46.641Z,4.90
2017-07-20T03:09:14.168Z,5.83
2017-07-20T03:11:41.894Z,5.93
2017-07-20T03:14:09.408Z,5.30
2017-07-20T03:16:36.938Z,5.57
2017-07-20T03:19:04.487Z,5.13
2017-07-20T03:21:32.041Z,5.33
2017-07-20T03:23:59.606Z,4.90
2017-07-20T03:26:27.186Z,4.60
2017-07-20T03:28:54.791Z,5.37
2017-07-20T03:31:22.349Z,5.97
2017-07-20T03:33:49.900Z,5.50
2017-07-20T03:36:17.460Z,5.07
2017-07-20T03:38:44.990Z,5.10
2017-07-20T03:41:12.541Z,5.67
2017-07-20T03:43:40.062Z,6.33
2017-07-20T03:46:07.574Z,4.80
2017-07-20T03:48:35.094Z,5.70
2017-07-20T03:51:02.639Z,4.63
2017-07-20T03:53:30.141Z,4.93
2017-07-20T03:55:57.678Z,5.40
2017-07-20T03:58:25.196Z,5.77
2017-07-20T04:00:52.861Z,5.80
2017-07-20T04:03:20.388Z,5.80
2017-07-20T04:05:47.935Z,5.23
2017-07-20T04:08:15.461Z,5.10
2017-07-20T04:10:42.969Z,5.13
2017-07-20T04:13:10.474Z,5.97
2017-07-20T04:15:37.996Z,5.10
2017-07-20T04:18:05.534Z,5.67
2017-07-20T04:20:33.066Z,5.10
2017-07-20T04:23:00.560Z,5.40
2017-07-20T04:25:28.068Z,5.57
2017-07-20T04:27:55.610Z,5.20
2017-07-20T04:30:23.124Z,5.80
2017-07-20T04:32:50.917Z,6.30
2017-07-20T04:35:18.416Z,5.40
2017-07-20T04:37:45.927Z,5.50
2017-07-20T04:40:13.426Z,5.30
2017-07-20T04:42:40.944Z,5.10
2017-07-20T04:45:08.453Z,4.70
2017-07-20T04:47:35.968Z,5.60
2017-07-20T04:50:03.464Z,5.50
2017-07-20T04:52:30.979Z,6.23
2017-07-20T04:54:58.474Z,5.60
2017-07-20T04:57:25.995Z,5.90
2017-07-20T04:59:53.508Z,4.83
2017-07-20T05:02:21.083Z,5.10
2017-07-20T05:04:48.604Z,5.60
2017-07-20T05:07:16.145Z,5.23
2017-07-20T05:09:43.669Z,5.73
2017-07-20T05:12:11.193Z,5.20
2017-07-20T05:14:38.760Z,5.07
2017-07-20T05:17:06.401Z,4.80
2017-07-20T05:19:33.921Z,4.87
2017-07-20T05:22:01.432Z,5.27
2017-07-20T05:24:28.978Z,5.73
2017-07-20T05:26:56.496Z,5.83
2017-07-20T05:29:24.019Z,5.77
2017-07-20T05:31:51.544Z,5.37
2017-07-20T05:34:19.036Z,6.10
2017-07-20T05:36:46.533Z,4.80
2017-07-20T05:39:14.048Z,6.13
2017-07-20T05:41:41.551Z,5.70
2017-07-20T05:44:09.071Z,5.23
2017-07-20T05:46:36.579Z,5.47
2017-07-20T05:49:04.095Z,5.67
2017-07-20T05:51:31.592Z,6.47
2017-07-20T05:53:59.108Z,5.43
2017-07-20T05:56:26.617Z,5.63
2017-07-20T05:58:54.136Z,5.73
2017-07-20T06:01:21.641Z,5.20
2017-07-20T06:03:49.153Z,5.60
2017-07-20T06:06:16.657Z,5.00
2017-07-20T06:08:44.164Z,4.77
2017-07-20T06:11:11.660Z,5.30
2017-07-20T06:13:39.224Z,4.50
2017-07-20T06:16:06.713Z,5.27
2017-07-20T06:18:34.259Z,4.87
2017-07-20T06:21:01.740Z,5.67
2017-07-20T06:23:29.260Z,5.20
2017-07-20T06:25:56.761Z,4.53
2017-07-20T06:28:24.282Z,5.13
2017-07-20T06:30:51.781Z,4.87
2017-07-20T06:33:19.332Z,5.83
2017-07-20T06:35:46.824Z,4.20
2017-07-20T06:38:14.348Z,4.60
2017-07-20T06:40:41.841Z,3.97
2017-07-20T06:43:09.369Z,4.83
2017-07-20T06:45:36.863Z,4.90
2017-07-20T06:48:04.376Z,3.60
2017-07-20T06:50:31.885Z,4.20
2017-07-20T06:52:59.392Z,4.63
2017-07-20T06:55:26.882Z,3.60
2017-07-20T06:57:54.405Z,4.20
2017-07-20T07:00:21.891Z,3.80
2017-07-20T07:02:49.376Z,5.17
2017-07-20T07:05:16.896Z,4.00
2017-07-20T07:07:44.386Z,3.80
2017-07-20T07:10:11.903Z,3.47
2017-07-20T07:12:39.409Z,4.40
2017-07-20T07:15:06.932Z,4.40
2017-07-20T07:17:34.426Z,4.27
2017-07-20T07:20:01.960Z,3.17
2017-07-20T07:22:29.460Z,3.80
2017-07-20T07:24:56.992Z,3.67
2017-07-20T07:27:24.487Z,4.30
2017-07-20T07:29:52.002Z,3.67
2017-07-20T07:32:19.501Z,3.50
2017-07-20T07:34:47.020Z,3.60
2017-07-20T07:37:14.526Z,3.00
2017-07-20T07:39:42.041Z,3.30
2017-07-20T07:42:09.548Z,3.50
2017-07-20T07:44:37.971Z,2.90
2017-07-20T07:47:05.472Z,3.20
2017-07-20T07:49:33.003Z,2.90
2017-07-20T07:52:00.521Z,2.90
2017-07-20T07:54:28.041Z,3.30
2017-07-20T07:56:55.545Z,2.93
2017-07-20T07:59:23.056Z,3.00
2017-07-20T08:01:50.580Z,2.70
2017-07-20T08:04:18.098Z,3.10
2017-07-20T08:06:45.592Z,3.27
2017-07-20T08:09:13.108Z,2.67
2017-07-20T08:11:40.619Z,2.40
2017-07-20T08:14:08.134Z,2.93
2017-07-20T08:16:35.672Z,2.97
2017-07-20T08:19:03.202Z,2.73
2017-07-20T08:21:30.700Z,2.97
2017-07-20T08:23:58.224Z,2.90
2017-07-20T08:26:25.730Z,2.90
2017-07-20T08:28:53.245Z,3.40
2017-07-20T08:31:20.739Z,2.80
2017-07-20T08:33:48.310Z,3.40
2017-07-20T08:36:15.832Z,2.93
2017-07-20T08:38:43.368Z,2.67
2017-07-20T08:41:10.878Z,2.90
2017-07-20T08:43:38.420Z,3.97
2017-07-20T08:46:05.941Z,3.40
2017-07-20T08:48:33.469Z,3.30
2017-07-20T08:51:00.986Z,3.73
2017-07-20T08:53:28.520Z,3.50
2017-07-20T08:55:56.025Z,3.50
2017-07-20T08:58:23.529Z,4.10
2017-07-20T09:00:51.057Z,3.67
2017-07-20T09:03:18.568Z,3.83
2017-07-20T09:05:46.089Z,3.50
2017-07-20T09:08:13.611Z,3.70
2017-07-20T09:10:41.125Z,4.10
2017-07-20T09:13:08.643Z,3.57
2017-07-20T09:15:36.187Z,4.30
2017-07-20T09:18:03.691Z,4.17
2017-07-20T09:20:31.212Z,4.30
2017-07-20T09:22:58.740Z,4.27
2017-07-20T09:25:26.287Z,4.40
2017-07-20T09:27:53.790Z,4.77
2017-07-20T09:30:21.344Z,3.97
2017-07-20T09:32:49.098Z,5.37
2017-07-20T09:35:16.678Z,5.03
2017-07-20T09:37:44.232Z,4.90
2017-07-20T09:40:11.802Z,5.30
2017-07-20T09:42:39.329Z,4.40
2017-07-20T09:45:18.661Z,5.10
2017-07-20T09:47:46.176Z,5.20
2017-07-20T09:50:13.670Z,5.53
2017-07-20T09:52:41.185Z,4.97
2017-07-20T09:55:08.710Z,5.00
2017-07-20T09:57:36.257Z,4.83
2017-07-20T10:00:03.781Z,5.20
2017-07-20T10:02:31.318Z,5.33
2017-07-20T10:04:58.828Z,5.10
2017-07-20T10:07:26.348Z,5.43
2017-07-20T10:09:53.872Z,4.90
2017-07-20T10:12:21.397Z,5.40
2017-07-20T10:14:48.895Z,4.20
2017-07-20T10:17:16.420Z,4.83
2017-07-20T10:19:43.925Z,5.13
2017-07-20T10:22:11.442Z,4.70
2017-07-20T10:24:38.960Z,5.30
2017-07-20T10:27:06.488Z,4.80
2017-07-20T10:29:33.988Z,5.10
2017-07-20T10:32:01.503Z,6.00
2017-07-20T10:34:29.010Z,4.80
2017-07-20T10:36:56.542Z,5.23
2017-07-20T10:39:24.043Z,5.80
2017-07-20T10:41:51.574Z,5.20
2017-07-20T10:44:19.072Z,5.10
2017-07-20T10:46:46.587Z,5.53
2017-07-20T10:49:14.092Z,5.83
2017-07-20T10:51:41.609Z,4.77
2017-07-20T10:54:09.132Z,5.60
2017-07-20T10:56:36.659Z,5.80
2017-07-20T10:59:04.215Z,6.03
2017-07-20T11:01:31.718Z,5.27
2017-07-20T11:03:59.389Z,5.20
2017-07-20T11:06:26.947Z,5.70
2017-07-20T11:08:54.522Z,6.13
2017-07-20T11:11:22.063Z,5.83
2017-07-20T11:13:49.621Z,5.90
2017-07-20T11:16:17.192Z,5.97
2017-07-20T11:18:44.764Z,5.63
2017-07-20T11:21:12.296Z,5.60
2017-07-20T11:23:39.847Z,5.37
2017-07-20T11:26:07.376Z,5.27
2017-07-20T11:28:34.929Z,4.90
2017-07-20T11:31:02.547Z,6.23
2017-07-20T11:33:30.086Z,5.20
2017-07-20T11:35:57.648Z,5.50
2017-07-20T11:38:25.217Z,5.33
2017-07-20T11:40:52.759Z,5.00
2017-07-20T11:43:20.257Z,5.23
2017-07-20T11:45:47.809Z,5.10
2017-07-20T11:48:15.373Z,5.23
2017-07-20T11:50:42.894Z,4.67
2017-07-20T11:53:10.452Z,5.27
2017-07-20T11:55:37.984Z,5.80
2017-07-20T11:58:05.536Z,5.57
2017-07-20T12:00:33.128Z,5.97
2017-07-20T12:03:00.653Z,5.83
2017-07-20T12:05:28.227Z,6.30
2017-07-20T12:07:55.827Z,5.27
2017-07-20T12:10:23.360Z,5.70
2017-07-20T12:12:50.906Z,5.90
2017-07-20T12:15:18.459Z,5.80
2017-07-20T12:17:45.969Z,7.77
2017-07-20T12:20:13.504Z,5.83
2017-07-20T12:22:41.035Z,6.30
2017-07-20T12:25:08.575Z,6.80
2017-07-20T12:27:36.100Z,6.00
2017-07-20T12:30:03.622Z,6.10
2017-07-20T12:32:31.178Z,6.97
2017-07-20T12:34:58.694Z,6.47
2017-07-20T12:37:26.188Z,6.10
2017-07-20T12:39:53.709Z,6.00
2017-07-20T12:42:21.199Z,4.70
2017-07-20T12:44:48.714Z,7.20
2017-07-20T12:47:16.213Z,5.20
2017-07-20T12:49:43.723Z,5.57
2017-07-20T12:52:11.242Z,5.60
2017-07-20T12:54:38.736Z,5.90
2017-07-20T12:57:06.264Z,4.50
2017-07-20T12:59:33.764Z,5.57
2017-07-20T13:02:01.268Z,5.27
2017-07-20T13:04:28.788Z,4.77
2017-07-20T13:06:56.283Z,5.10
2017-07-20T13:09:23.800Z,5.33
2017-07-20T13:11:51.300Z,4.50
2017-07-20T13:14:18.808Z,4.57
2017-07-20T13:16:46.344Z,4.00
2017-07-20T13:19:13.837Z,4.03
2017-07-20T13:21:41.349Z,3.93
2017-07-20T13:24:08.853Z,4.30
2017-07-20T13:26:36.372Z,4.47
2017-07-20T13:29:03.892Z,4.10
2017-07-20T13:31:31.398Z,4.10
2017-07-20T13:33:58.924Z,4.03
2017-07-20T13:36:26.430Z,4.43
2017-07-20T13:38:53.937Z,4.20
2017-07-20T13:41:21.529Z,3.93
2017-07-20T13:43:49.017Z,4.40
2017-07-20T13:46:16.536Z,4.40
2017-07-20T13:48:44.032Z,4.23
2017-07-20T13:51:11.527Z,4.73
2017-07-20T13:53:39.049Z,4.80
2017-07-20T13:56:06.551Z,4.83
2017-07-20T13:58:34.065Z,4.27
2017-07-20T14:01:01.559Z,4.60
2017-07-20T14:03:29.057Z,4.50
2017-07-20T14:05:56.578Z,4.23
2017-07-20T14:08:24.088Z,4.30
2017-07-20T14:10:51.612Z,4.30
2017-07-20T14:13:19.117Z,4.50
2017-07-20T14:15:46.621Z,4.30
2017-07-20T14:18:14.136Z,4.80
2017-07-20T14:20:41.632Z,4.40
2017-07-20T14:23:09.152Z,4.70
2017-07-20T14:25:36.644Z,4.53
2017-07-20T14:28:04.136Z,4.17
2017-07-20T14:30:31.652Z,5.50
2017-07-20T14:32:59.171Z,5.93
2017-07-20T14:35:26.701Z,6.33
2017-07-20T14:37:54.202Z,4.97
2017-07-20T14:40:21.861Z,5.83
2017-07-20T14:42:49.391Z,5.27
2017-07-20T14:45:16.914Z,5.53
2017-07-20T14:47:44.433Z,6.00
2017-07-20T14:50:11.936Z,5.40
2017-07-20T14:52:39.441Z,5.00
2017-07-20T14:55:06.949Z,5.00
2017-07-20T14:57:34.452Z,5.13
2017-07-20T15:00:01.977Z,4.97
2017-07-20T15:02:29.490Z,5.40
2017-07-20T15:04:56.989Z,5.20
2017-07-20T15:07:24.509Z,5.70
2017-07-20T15:09:52.009Z,5.23
2017-07-20T15:12:19.528Z,5.27
2017-07-20T15:14:47.018Z,4.97
2017-07-20T15:17:14.508Z,4.90
2017-07-20T15:19:42.017Z,5.63
2017-07-20T15:22:09.504Z,5.37
2017-07-20T15:24:37.029Z,5.80
2017-07-20T15:27:04.539Z,5.33
2017-07-20T15:29:32.050Z,4.97
2017-07-20T15:31:59.576Z,5.47
2017-07-20T15:34:27.079Z,5.10
2017-07-20T15:36:54.610Z,4.80
2017-07-20T15:39:22.136Z,5.50
2017-07-20T15:41:49.650Z,5.07
2017-07-20T15:44:17.171Z,4.73
2017-07-20T15:46:44.671Z,6.13
2017-07-20T15:49:12.205Z,5.83
2017-07-20T15:51:40.352Z,5.60
2017-07-20T15:54:07.871Z,5.63
2017-07-20T15:56:35.396Z,4.90
2017-07-20T15:59:02.893Z,5.50
2017-07-20T16:01:30.694Z,5.90
2017-07-20T16:03:58.224Z,5.80
2017-07-20T16:06:25.723Z,7.40
2017-07-20T16:08:53.247Z,5.97
2017-07-20T16:11:20.735Z,4.80
2017-07-20T16:13:48.271Z,2.90
2017-07-20T16:16:15.776Z,3.00
2017-07-20T16:18:43.288Z,4.53
2017-07-20T16:21:10.845Z,4.70
2017-07-20T16:23:38.369Z,4.20
2017-07-20T16:26:05.887Z,3.43
2017-07-20T16:28:33.389Z,3.20
2017-07-20T16:31:00.883Z,3.20
2017-07-20T16:33:28.440Z,2.70
2017-07-20T16:35:55.945Z,3.10
2017-07-20T16:38:23.457Z,2.93
2017-07-20T16:40:50.959Z,2.90
2017-07-20T16:43:18.558Z,2.50
2017-07-20T16:45:46.089Z,2.57
2017-07-20T16:48:13.589Z,2.90
2017-07-20T16:50:41.134Z,2.40
2017-07-20T16:53:09.621Z,2.60
2017-07-20T16:55:37.150Z,2.43
2017-07-20T16:58:04.666Z,2.30
2017-07-20T17:00:33.332Z,1.87
2017-07-20T17:03:00.856Z,2.30
2017-07-20T17:05:28.374Z,1.77
2017-07-20T17:07:55.873Z,2.57
2017-07-20T17:10:23.398Z,2.40
2017-07-20T17:12:50.908Z,2.27
2017-07-20T17:15:18.728Z,2.70
2017-07-20T17:17:46.233Z,2.77
2017-07-20T17:20:13.739Z,3.27
2017-07-20T17:22:41.265Z,2.90
2017-07-20T17:25:08.766Z,3.20
2017-07-20T17:27:36.289Z,3.03
2017-07-20T17:30:03.802Z,3.00
2017-07-20T17:32:31.302Z,3.70
2017-07-20T17:34:58.823Z,3.40
2017-07-20T17:37:26.326Z,3.70
2017-07-20T17:39:53.865Z,4.10
2017-07-20T17:42:21.362Z,3.57
2017-07-20T17:44:48.889Z,3.80
2017-07-20T17:47:16.421Z,3.40
2017-07-20T17:49:43.925Z,3.10
2017-07-20T17:52:11.454Z,3.40
2017-07-20T17:54:38.952Z,3.60
2017-07-20T17:57:06.457Z,3.17
2017-07-20T17:59:33.973Z,2.70
2017-07-20T18:02:01.508Z,2.90
2017-07-20T18:04:29.083Z,3.30
2017-07-20T18:06:56.606Z,3.77
2017-07-20T18:09:24.092Z,3.00
2017-07-20T18:11:51.625Z,3.30
2017-07-20T18:14:19.123Z,3.70
2017-07-20T18:16:46.677Z,3.07
2017-07-20T18:19:14.189Z,3.37
2017-07-20T18:21:41.732Z,3.10
2017-07-20T18:24:09.270Z,3.60
2017-07-20T18:26:36.793Z,3.93
2017-07-20T18:29:04.354Z,3.97
2017-07-20T18:31:31.873Z,3.30
2017-07-20T18:33:59.401Z,3.50
2017-07-20T18:36:26.926Z,2.67
2017-07-20T18:38:54.437Z,3.20
2017-07-20T18:41:21.940Z,2.90
2017-07-20T18:43:49.477Z,4.00
2017-07-20T18:46:17.006Z,3.60
2017-07-20T18:48:44.512Z,3.20
2017-07-20T18:51:12.125Z,3.07
2017-07-20T18:53:39.628Z,3.73
2017-07-20T18:56:07.260Z,3.23
2017-07-20T18:58:34.913Z,3.70
2017-07-20T19:01:02.426Z,3.67
2017-07-20T19:03:29.965Z,3.40
2017-07-20T19:05:57.489Z,3.10
2017-07-20T19:08:25.021Z,3.83
2017-07-20T19:10:52.516Z,3.17
2017-07-20T19:13:20.210Z,2.93
2017-07-20T19:15:47.756Z,3.73
2017-07-20T19:18:15.273Z,3.57
2017-07-20T19:20:42.910Z,4.70
2017-07-20T19:23:10.404Z,3.77
2017-07-20T19:25:37.911Z,4.10
2017-07-20T19:28:05.446Z,3.30
2017-07-20T19:30:32.961Z,3.40
2017-07-20T19:33:00.484Z,3.90
2017-07-20T19:35:27.981Z,3.67
2017-07-20T19:37:55.472Z,3.80
2017-07-20T19:40:23.007Z,3.60
2017-07-20T19:42:50.509Z,3.70
2017-07-20T19:45:18.027Z,4.40
2017-07-20T19:47:45.535Z,4.10
2017-07-20T19:50:13.050Z,4.43
2017-07-20T19:52:40.573Z,3.97
2017-07-20T19:55:08.083Z,4.73
2017-07-20T19:57:35.614Z,4.30
2017-07-20T20:00:03.242Z,4.13
2017-07-20T20:02:30.776Z,4.10
2017-07-20T20:04:58.382Z,4.10
2017-07-20T20:07:25.897Z,4.17
2017-07-20T20:09:53.420Z,4.47
2017-07-20T20:12:20.923Z,4.50
2017-07-20T20:14:48.457Z,4.10
2017-07-20T20:17:15.993Z,5.07
2017-07-20T20:19:43.524Z,4.57
2017-07-20T20:22:11.046Z,4.70
2017-07-20T20:24:38.541Z,3.97
2017-07-20T20:27:06.047Z,4.77
2017-07-20T20:29:33.572Z,4.13
2017-07-20T20:32:01.073Z,4.97
2017-07-20T20:34:28.628Z,4.50
2017-07-20T20:36:56.558Z,4.30
2017-07-20T20:39:24.097Z,4.27
2017-07-20T20:41:51.626Z,4.40
2017-07-20T20:44:19.129Z,5.40
2017-07-20T20:46:46.674Z,5.63
2017-07-20T20:49:14.197Z,4.93
2017-07-20T20:51:41.700Z,5.47
2017-07-20T20:54:09.227Z,4.93
2017-07-20T20:56:36.828Z,5.67
2017-07-20T20:59:04.362Z,4.03
2017-07-20T21:01:31.924Z,3.90
2017-07-20T21:03:59.429Z,4.27
2017-07-20T21:06:27.168Z,4.33
2017-07-20T21:08:54.701Z,4.40
2017-07-20T21:11:22.221Z,5.27
2017-07-20T21:13:49.773Z,4.50
2017-07-20T21:16:17.298Z,4.37
2017-07-20T21:18:44.820Z,4.73
2017-07-20T21:21:12.338Z,4.57
2017-07-20T21:23:39.892Z,4.53
2017-07-20T21:26:07.392Z,4.60
2017-07-20T21:28:34.905Z,4.60
2017-07-20T21:31:02.448Z,4.97
2017-07-20T21:33:29.962Z,4.50
2017-07-20T21:35:57.501Z,4.10
2017-07-20T21:38:24.992Z,5.27
2017-07-20T21:40:52.510Z,3.93
2017-07-20T21:43:20.037Z,5.17
2017-07-20T21:45:47.561Z,4.50
2017-07-20T21:48:15.090Z,5.03
2017-07-20T21:50:42.613Z,5.00
2017-07-20T21:53:10.101Z,4.50
2017-07-20T21:55:37.717Z,5.07
2017-07-20T21:58:05.216Z,5.17
2017-07-20T22:00:32.732Z,5.00
2017-07-20T22:03:00.241Z,5.03
2017-07-20T22:05:27.741Z,5.20
2017-07-20T22:07:55.305Z,4.40
2017-07-20T22:10:22.976Z,5.03
2017-07-20T22:12:50.496Z,5.00
2017-07-20T22:15:17.996Z,5.43
2017-07-20T22:17:45.627Z,6.30
2017-07-20T22:20:13.182Z,5.23
2017-07-20T22:22:40.741Z,4.67
2017-07-20T22:25:08.323Z,5.57
2017-07-20T22:27:35.850Z,4.70
2017-07-20T22:30:03.387Z,5.10
2017-07-20T22:32:30.923Z,5.27
2017-07-20T22:34:58.450Z,5.53
2017-07-20T22:37:25.998Z,5.30
2017-07-20T22:39:53.538Z,5.53
2017-07-20T22:42:21.113Z,5.80
2017-07-20T22:44:48.653Z,5.27
2017-07-20T22:47:16.173Z,5.33
2017-07-20T22:49:43.723Z,5.37
2017-07-20T22:52:11.238Z,5.10
2017-07-20T22:54:38.777Z,5.40
2017-07-20T22:57:06.306Z,5.10
2017-07-20T22:59:33.853Z,4.00
2017-07-20T23:02:01.398Z,5.40
2017-07-20T23:04:28.908Z,5.27
2017-07-20T23:06:57.328Z,5.90
2017-07-20T23:09:24.834Z,5.37
2017-07-20T23:11:52.352Z,6.00
2017-07-20T23:14:19.868Z,5.30
2017-07-20T23:16:47.400Z,5.17
2017-07-20T23:19:14.957Z,5.77
2017-07-20T23:21:42.468Z,5.50
2017-07-20T23:24:09.987Z,5.20
2017-07-20T23:26:37.524Z,5.93
2017-07-20T23:29:05.053Z,5.87
2017-07-20T23:31:32.565Z,5.80
2017-07-20T23:34:00.103Z,4.90
2017-07-20T23:36:27.604Z,5.67
2017-07-20T23:38:55.134Z,5.00
2017-07-20T23:41:22.632Z,5.80
2017-07-20T23:43:50.147Z,5.13
2017-07-20T23:46:17.631Z,5.90
2017-07-20T23:48:45.147Z,5.30
2017-07-20T23:51:12.645Z,5.43
2017-07-20T23:53:40.159Z,4.90
2017-07-20T23:56:07.662Z,5.33
2017-07-20T23:58:35.196Z,5.60
